Time;durP1;ratioP1;P1;durP2;ratioP2;P2;SDS_P1;SDS_P2;PMS_P1;PMS_P2;Temp;Humidity;BMP_temperature;BMP_pressure;BME280_temperature;BME280_humidity;BME280_pressure;Samples;Min_cycle;Max_cycle;Signal;HPM_P1;HPM_P2
2021/06/30 00:00:27;;;;;;;4.70;4.40;;;20.60;99.90;;;;;;5071631;28;20263;-82
2021/06/30 00:02:53;;;;;;;4.47;4.27;;;20.70;99.90;;;;;;5072047;28;20181;-82
2021/06/30 00:05:19;;;;;;;4.57;4.37;;;20.60;99.90;;;;;;5071994;28;20173;-83
2021/06/30 00:07:47;;;;;;;4.30;4.10;;;20.70;99.90;;;;;;5076134;28;20244;-82
2021/06/30 00:10:13;;;;;;;4.63;4.43;;;20.60;99.90;;;;;;5076110;28;20537;-82
2021/06/30 00:12:39;;;;;;;4.40;4.20;;;20.70;99.90;;;;;;5075197;28;20588;-82
2021/06/30 00:15:08;;;;;;;4.70;4.40;;;20.60;99.90;;;;;;5076072;28;20443;-82
2021/06/30 00:17:34;;;;;;;4.73;4.53;;;20.60;99.90;;;;;;5075334;28;20175;-81
2021/06/30 00:19:59;;;;;;;5.23;4.83;;;20.60;99.90;;;;;;5076087;28;20419;-81
2021/06/30 00:22:25;;;;;;;4.87;4.67;;;20.60;99.90;;;;;;5074041;28;20173;-81
2021/06/30 00:24:51;;;;;;;5.10;4.80;;;20.60;99.90;;;;;;5075768;28;20173;-81
2021/06/30 00:27:17;;;;;;;5.07;4.77;;;20.60;99.90;;;;;;5076153;28;20261;-81
2021/06/30 00:29:43;;;;;;;5.23;4.93;;;20.50;99.90;;;;;;5075353;28;20197;-81
2021/06/30 00:32:08;;;;;;;5.23;4.93;;;20.50;99.90;;;;;;5075581;28;20411;-81
2021/06/30 00:34:34;;;;;;;5.13;4.83;;;20.50;99.90;;;;;;5075059;28;20601;-82
2021/06/30 00:37:00;;;;;;;5.93;5.43;;;20.50;99.90;;;;;;5075288;28;20180;-81
2021/06/30 00:39:25;;;;;;;6.50;6.10;;;20.50;99.90;;;;;;5074953;28;20192;-81
2021/06/30 00:41:54;;;;;;;6.63;6.23;;;20.40;99.90;;;;;;5075499;28;20260;-82
2021/06/30 00:44:19;;;;;;;6.30;5.90;;;20.40;99.90;;;;;;5074755;28;20181;-82
2021/06/30 00:46:45;;;;;;;6.60;6.20;;;20.40;99.90;;;;;;5075516;28;20454;-82
2021/06/30 00:49:11;;;;;;;6.80;6.40;;;20.40;99.90;;;;;;5075016;28;20247;-81
2021/06/30 00:51:36;;;;;;;5.80;5.40;;;20.30;99.90;;;;;;5074707;28;20204;-82
2021/06/30 00:54:02;;;;;;;5.97;5.57;;;20.30;99.90;;;;;;5075279;28;20177;-81
2021/06/30 00:56:29;;;;;;;5.23;4.93;;;20.30;99.90;;;;;;5074555;28;20173;-82
2021/06/30 00:58:57;;;;;;;5.40;5.10;;;20.30;99.90;;;;;;5075202;28;20260;-82
2021/06/30 01:01:23;;;;;;;5.73;5.23;;;20.30;99.90;;;;;;5074493;28;20549;-83
2021/06/30 01:03:50;;;;;;;5.77;5.27;;;20.40;99.90;;;;;;5075086;28;20395;-82
2021/06/30 01:06:17;;;;;;;5.80;5.40;;;20.30;99.90;;;;;;5057206;28;20396;-82
2021/06/30 01:08:44;;;;;;;6.37;5.87;;;20.30;99.90;;;;;;5074378;28;20798;-82
2021/06/30 01:11:11;;;;;;;7.27;6.67;;;20.30;99.90;;;;;;5075165;28;20451;-81
2021/06/30 01:13:39;;;;;;;7.80;7.10;;;20.30;99.90;;;;;;5074330;28;20942;-81
2021/06/30 01:16:05;;;;;;;7.80;7.30;;;20.30;99.90;;;;;;5074399;28;20440;-82
2021/06/30 01:18:33;;;;;;;8.27;7.67;;;20.30;99.90;;;;;;5073899;28;20403;-82
2021/06/30 01:21:00;;;;;;;8.30;7.70;;;20.30;99.90;;;;;;5074745;28;20887;-82
2021/06/30 01:23:26;;;;;;;8.60;8.00;;;20.30;99.90;;;;;;5074094;28;20401;-82
2021/06/30 01:25:53;;;;;;;9.63;8.83;;;20.30;99.90;;;;;;5074685;28;20446;-81
2021/06/30 01:28:19;;;;;;;8.50;7.90;;;20.30;99.90;;;;;;5074616;28;20407;-82
2021/06/30 01:30:49;;;;;;;8.90;8.20;;;20.30;99.90;;;;;;5073621;28;20462;-81
2021/06/30 01:33:15;;;;;;;9.30;8.57;;;20.20;99.90;;;;;;5074617;28;20756;-82
2021/06/30 01:35:41;;;;;;;9.27;8.57;;;20.20;99.90;;;;;;5073932;28;20490;-81
2021/06/30 01:38:07;;;;;;;9.13;8.37;;;20.20;99.90;;;;;;5074129;28;20735;-81
2021/06/30 01:40:33;;;;;;;8.20;7.60;;;20.20;99.90;;;;;;5073823;28;20983;-81
2021/06/30 01:42:59;;;;;;;7.97;7.40;;;20.20;99.90;;;;;;5074361;28;20403;-81
2021/06/30 01:45:26;;;;;;;9.40;8.70;;;20.20;99.90;;;;;;5073150;28;20856;-82
2021/06/30 01:47:52;;;;;;;9.27;8.57;;;20.20;99.90;;;;;;5074287;28;20442;-81
2021/06/30 01:50:18;;;;;;;8.57;7.93;;;20.20;99.90;;;;;;5074167;28;20443;-80
2021/06/30 01:52:44;;;;;;;8.57;7.97;;;20.30;99.90;;;;;;5073837;28;20238;-81
2021/06/30 01:55:13;;;;;;;10.43;9.53;;;20.30;99.90;;;;;;5074389;28;20184;-80
2021/06/30 01:57:50;;;;;;;9.33;8.70;;;20.30;99.90;;;;;;5073616;28;20879;-81
2021/06/30 02:00:18;;;;;;;10.30;9.60;;;20.30;99.90;;;;;;5074077;28;20396;-81
2021/06/30 02:02:46;;;;;;;9.50;8.80;;;20.30;99.90;;;;;;5073265;28;20430;-81
2021/06/30 02:05:17;;;;;;;9.07;8.37;;;20.20;99.90;;;;;;5073844;28;20406;-81
2021/06/30 02:07:49;;;;;;;10.43;9.53;;;20.20;99.90;;;;;;5073249;28;20414;-81
2021/06/30 02:10:15;;;;;;;8.30;7.60;;;20.20;99.90;;;;;;5073407;28;20462;-81
2021/06/30 02:12:42;;;;;;;8.87;8.27;;;20.20;99.90;;;;;;5073132;28;20399;-81
2021/06/30 02:15:12;;;;;;;9.07;8.40;;;20.10;99.90;;;;;;5073907;28;20510;-82
2021/06/30 02:17:37;;;;;;;9.50;8.80;;;20.10;99.90;;;;;;5071882;28;20396;-81
2021/06/30 02:20:09;;;;;;;9.83;9.10;;;20.10;99.90;;;;;;5073564;28;20469;-81
2021/06/30 02:22:38;;;;;;;9.93;9.23;;;20.10;99.90;;;;;;5072982;28;20188;-82
2021/06/30 02:25:08;;;;;;;9.97;9.17;;;20.00;99.90;;;;;;5073476;28;20396;-81
2021/06/30 02:27:34;;;;;;;9.50;8.80;;;20.00;99.90;;;;;;5072857;28;20423;-81
2021/06/30 02:30:00;;;;;;;9.00;8.40;;;20.00;99.90;;;;;;5073017;28;20954;-82
2021/06/30 02:32:25;;;;;;;9.80;9.03;;;20.00;99.90;;;;;;5072808;28;20204;-84
2021/06/30 02:34:51;;;;;;;9.27;8.57;;;20.00;99.90;;;;;;5073252;28;20173;-81
2021/06/30 02:37:17;;;;;;;9.13;8.43;;;19.90;99.90;;;;;;5073235;28;20173;-81
2021/06/30 02:39:43;;;;;;;9.70;8.90;;;19.90;99.90;;;;;;5072626;28;20449;-81
2021/06/30 02:42:09;;;;;;;8.67;7.97;;;20.00;99.90;;;;;;5073148;28;20868;-81
2021/06/30 02:44:34;;;;;;;8.53;7.70;;;20.00;99.90;;;;;;5072501;28;20256;-81
2021/06/30 02:47:00;;;;;;;8.40;7.80;;;20.00;99.90;;;;;;5072060;28;20158;-81
2021/06/30 02:49:26;;;;;;;8.07;7.37;;;20.00;99.90;;;;;;5072855;28;20339;-85
2021/06/30 02:51:52;;;;;;;8.93;7.80;;;20.00;99.90;;;;;;5072768;28;20200;-81
2021/06/30 02:54:17;;;;;;;9.07;8.37;;;20.00;99.90;;;;;;5072952;28;20399;-81
2021/06/30 02:56:43;;;;;;;8.30;7.70;;;20.00;99.90;;;;;;5072344;28;20172;-81
2021/06/30 02:59:09;;;;;;;8.80;8.20;;;20.00;99.90;;;;;;5072927;28;20183;-81
2021/06/30 03:01:34;;;;;;;8.33;7.73;;;20.10;99.90;;;;;;5072229;28;20173;-81
2021/06/30 03:04:00;;;;;;;9.00;8.40;;;20.00;99.90;;;;;;5072924;28;20181;-82
2021/06/30 03:06:26;;;;;;;8.10;7.40;;;20.00;99.90;;;;;;5072779;28;20179;-82
2021/06/30 03:08:52;;;;;;;8.60;8.00;;;20.00;99.90;;;;;;5072888;28;20208;-82
2021/06/30 03:11:18;;;;;;;8.87;8.17;;;20.00;99.90;;;;;;5054889;28;20418;-82
2021/06/30 03:13:44;;;;;;;9.13;8.47;;;20.10;99.90;;;;;;5072144;28;20195;-81
2021/06/30 03:16:10;;;;;;;9.83;9.03;;;20.10;99.90;;;;;;5072931;28;20205;-82
2021/06/30 03:18:35;;;;;;;8.40;7.80;;;20.10;99.90;;;;;;5071735;28;20516;-82
2021/06/30 03:21:01;;;;;;;8.87;8.17;;;20.10;99.90;;;;;;5072721;28;20751;-81
2021/06/30 03:23:27;;;;;;;7.73;7.13;;;20.10;99.90;;;;;;5072602;28;20196;-82
2021/06/30 03:25:52;;;;;;;7.90;7.40;;;20.10;99.90;;;;;;5072255;28;20233;-82
2021/06/30 03:28:18;;;;;;;8.60;8.00;;;20.10;99.90;;;;;;5072895;28;20172;-82
2021/06/30 03:30:44;;;;;;;7.43;7.03;;;20.10;99.90;;;;;;5071892;28;20291;-82
2021/06/30 03:33:10;;;;;;;7.63;7.13;;;20.10;99.90;;;;;;5072360;28;20219;-81
2021/06/30 03:35:36;;;;;;;7.60;7.10;;;20.10;99.90;;;;;;5072061;28;20231;-82
2021/06/30 03:38:03;;;;;;;7.67;7.20;;;20.10;99.90;;;;;;5072155;28;20485;-81
2021/06/30 03:40:29;;;;;;;7.70;7.20;;;20.10;99.90;;;;;;5073471;28;20437;-82
2021/06/30 03:42:54;;;;;;;7.23;6.83;;;20.10;99.90;;;;;;5076637;28;20415;-82
2021/06/30 03:45:20;;;;;;;8.10;7.50;;;20.10;99.90;;;;;;5076223;28;20465;-82
2021/06/30 03:47:46;;;;;;;7.70;7.30;;;20.10;99.90;;;;;;5075929;28;20575;-81
2021/06/30 03:50:12;;;;;;;7.73;7.23;;;20.10;99.90;;;;;;5076378;28;20450;-81
2021/06/30 03:52:38;;;;;;;8.03;7.57;;;20.00;99.90;;;;;;5075767;28;20177;-81
2021/06/30 03:55:04;;;;;;;7.73;7.30;;;20.00;99.90;;;;;;5075155;28;20408;-82
2021/06/30 03:57:30;;;;;;;7.97;7.50;;;20.00;99.90;;;;;;5076133;28;20203;-84
2021/06/30 03:59:56;;;;;;;7.83;7.13;;;20.00;99.90;;;;;;5076314;28;20748;-82
2021/06/30 04:02:23;;;;;;;8.20;7.70;;;20.00;99.90;;;;;;5076293;28;20411;-82
2021/06/30 04:04:48;;;;;;;8.37;7.87;;;20.00;99.90;;;;;;5075588;28;20506;-81
2021/06/30 04:07:14;;;;;;;8.73;8.13;;;20.00;99.90;;;;;;5076102;28;20494;-82
2021/06/30 04:09:40;;;;;;;8.03;7.47;;;20.00;99.90;;;;;;5075517;28;20197;-82
2021/06/30 04:12:06;;;;;;;8.60;8.00;;;20.00;99.90;;;;;;5076062;28;20306;-82
2021/06/30 04:14:32;;;;;;;8.20;7.60;;;20.10;99.90;;;;;;5075257;28;20175;-83
2021/06/30 04:16:58;;;;;;;8.33;7.73;;;20.10;99.90;;;;;;5076277;28;20399;-81
2021/06/30 04:19:23;;;;;;;8.50;7.90;;;20.10;99.90;;;;;;5058118;28;20418;-82
2021/06/30 04:21:50;;;;;;;8.00;7.50;;;20.10;99.90;;;;;;5074996;28;20647;-81
2021/06/30 04:24:16;;;;;;;9.93;9.13;;;20.10;99.90;;;;;;5076100;28;20268;-81
2021/06/30 04:26:42;;;;;;;8.83;8.23;;;20.10;99.90;;;;;;5075200;28;20490;-81
2021/06/30 04:29:08;;;;;;;7.60;7.10;;;20.00;99.90;;;;;;5075670;28;20196;-81
2021/06/30 04:31:34;;;;;;;7.43;6.93;;;20.00;99.90;;;;;;5075111;28;20411;-81
2021/06/30 04:34:00;;;;;;;9.90;9.10;;;20.00;99.90;;;;;;5075623;28;20437;-82
2021/06/30 04:36:26;;;;;;;8.60;8.10;;;20.00;99.90;;;;;;5075638;28;20413;-82
2021/06/30 04:38:52;;;;;;;8.37;7.77;;;20.00;99.90;;;;;;5074872;28;20177;-82
2021/06/30 04:41:17;;;;;;;11.00;10.10;;;20.00;99.90;;;;;;5075578;28;20177;-83
2021/06/30 04:43:43;;;;;;;8.43;7.83;;;20.00;99.90;;;;;;5074913;28;20181;-83
2021/06/30 04:46:09;;;;;;;9.60;8.90;;;20.00;99.90;;;;;;5057724;28;20247;-83
2021/06/30 04:48:35;;;;;;;9.23;8.33;;;20.00;99.90;;;;;;5074708;28;20191;-83
2021/06/30 04:51:05;;;;;;;10.20;9.37;;;20.00;99.90;;;;;;5074957;28;20415;-82
2021/06/30 04:53:31;;;;;;;9.23;8.57;;;20.00;99.90;;;;;;5075397;28;20404;-82
2021/06/30 04:55:58;;;;;;;10.30;9.40;;;20.00;99.90;;;;;;5056822;28;20411;-82
2021/06/30 04:58:25;;;;;;;11.47;10.47;;;20.00;99.90;;;;;;5075103;28;20404;-82
2021/06/30 05:00:54;;;;;;;9.00;8.30;;;19.90;99.90;;;;;;5074561;28;20409;-82
2021/06/30 05:03:27;;;;;;;9.60;8.80;;;19.70;99.90;;;;;;5075151;28;20494;-82
2021/06/30 05:05:56;;;;;;;11.10;10.30;;;19.70;99.90;;;;;;5074487;28;20392;-82
2021/06/30 05:08:23;;;;;;;10.67;9.97;;;19.70;99.90;;;;;;5075005;28;20899;-82
2021/06/30 05:10:52;;;;;;;9.13;8.43;;;19.70;99.90;;;;;;5074229;28;20443;-83
2021/06/30 05:13:18;;;;;;;11.00;10.30;;;19.80;99.90;;;;;;5074889;28;20415;-83
2021/06/30 05:15:44;;;;;;;9.83;9.10;;;19.80;99.90;;;;;;5073927;28;20434;-83
2021/06/30 05:18:10;;;;;;;9.60;8.83;;;20.00;99.90;;;;;;5074885;28;20408;-83
2021/06/30 05:20:36;;;;;;;11.93;11.03;;;20.30;99.90;;;;;;5074541;28;20414;-86
2021/06/30 05:23:02;;;;;;;10.73;9.00;;;20.50;99.90;;;;;;5072610;28;20405;-83
2021/06/30 05:25:33;;;;;;;9.83;9.00;;;20.80;99.90;;;;;;5073181;28;20176;-83
2021/06/30 05:27:58;;;;;;;9.90;9.10;;;21.10;99.90;;;;;;5073877;28;20441;-83
2021/06/30 05:30:24;;;;;;;10.37;9.50;;;21.30;99.90;;;;;;5074755;28;20826;-82
2021/06/30 05:32:50;;;;;;;11.40;10.50;;;21.50;99.90;;;;;;5072757;28;20613;-83
2021/06/30 05:35:16;;;;;;;11.40;10.40;;;21.60;99.90;;;;;;5074684;28;20169;-83
2021/06/30 05:37:41;;;;;;;11.10;10.30;;;21.70;99.90;;;;;;5073841;28;20180;-83
2021/06/30 05:40:07;;;;;;;12.73;11.73;;;21.80;99.80;;;;;;5074472;28;20169;-83
2021/06/30 05:42:33;;;;;;;13.43;12.33;;;21.90;99.90;;;;;;5074431;28;20173;-82
2021/06/30 05:44:59;;;;;;;8.00;7.40;;;22.00;99.00;;;;;;5073654;28;20463;-85
2021/06/30 05:47:24;;;;;;;10.23;9.63;;;21.70;98.00;;;;;;5074288;28;20263;-84
2021/06/30 05:49:50;;;;;;;8.40;7.53;;;21.50;98.50;;;;;;5073550;28;20197;-82
2021/06/30 05:52:16;;;;;;;11.70;10.90;;;21.30;99.70;;;;;;5074258;28;20242;-82
2021/06/30 05:54:42;;;;;;;7.70;7.13;;;21.20;99.90;;;;;;5073579;28;20169;-78
2021/06/30 05:57:07;;;;;;;9.57;8.67;;;21.00;99.90;;;;;;5056208;28;20399;-82
2021/06/30 05:59:33;;;;;;;8.47;7.90;;;20.90;99.90;;;;;;5074089;28;20199;-81
2021/06/30 06:01:59;;;;;;;8.00;7.50;;;20.90;99.90;;;;;;5073287;28;20238;-76
2021/06/30 06:04:24;;;;;;;7.70;7.20;;;20.80;99.90;;;;;;5072922;28;20173;-76
2021/06/30 06:06:50;;;;;;;7.10;6.67;;;20.80;99.90;;;;;;5072911;28;20204;-77
2021/06/30 06:09:16;;;;;;;7.93;7.27;;;20.80;99.90;;;;;;5073562;28;20630;-76
2021/06/30 06:11:42;;;;;;;7.57;7.07;;;20.80;99.90;;;;;;5073172;28;20637;-76
2021/06/30 06:14:07;;;;;;;7.10;6.60;;;20.60;99.90;;;;;;5073515;28;20173;-77
2021/06/30 06:16:33;;;;;;;6.60;6.20;;;20.60;99.90;;;;;;5072468;28;20252;-76
2021/06/30 06:18:59;;;;;;;6.90;6.50;;;20.50;99.90;;;;;;5072959;28;20196;-77
2021/06/30 06:21:24;;;;;;;7.47;6.97;;;20.50;99.90;;;;;;5073451;28;20169;-77
2021/06/30 06:23:50;;;;;;;8.67;8.07;;;20.50;99.90;;;;;;5072516;28;20174;-77
2021/06/30 06:26:16;;;;;;;8.80;8.37;;;20.50;99.90;;;;;;5073704;28;20190;-77
2021/06/30 06:28:43;;;;;;;8.40;6.90;;;20.50;99.90;;;;;;5072749;28;20177;-77
2021/06/30 06:31:15;;;;;;;5.47;5.17;;;20.50;99.90;;;;;;5073396;28;20422;-76
2021/06/30 06:33:40;;;;;;;7.30;6.90;;;20.50;99.90;;;;;;5073019;28;20407;-77
2021/06/30 06:36:08;;;;;;;6.83;6.43;;;20.50;99.90;;;;;;5073305;28;20493;-76
2021/06/30 06:38:36;;;;;;;8.47;7.67;;;20.30;99.90;;;;;;5073243;28;20207;-76
2021/06/30 06:41:01;;;;;;;7.50;7.00;;;20.10;99.90;;;;;;5072555;28;20408;-77
2021/06/30 06:43:27;;;;;;;10.90;9.80;;;20.10;99.90;;;;;;5073183;28;20410;-76
2021/06/30 06:45:53;;;;;;;6.90;6.40;;;20.30;99.90;;;;;;5072216;28;20221;-82
2021/06/30 06:48:19;;;;;;;6.73;6.33;;;20.10;99.90;;;;;;5073193;28;20227;-75
2021/06/30 06:50:46;;;;;;;9.27;8.47;;;20.20;99.90;;;;;;5071939;28;20683;-77
2021/06/30 06:53:11;;;;;;;7.13;6.73;;;19.90;99.90;;;;;;5072982;28;20472;-78
2021/06/30 06:55:37;;;;;;;5.97;5.57;;;19.80;99.90;;;;;;5072980;28;20271;-75
2021/06/30 06:58:03;;;;;;;5.50;5.07;;;19.70;99.90;;;;;;5072289;28;20173;-77
2021/06/30 07:00:29;;;;;;;4.87;4.67;;;19.70;99.90;;;;;;5072958;28;20399;-78
2021/06/30 07:02:54;;;;;;;4.77;4.40;;;19.80;99.90;;;;;;5072285;28;20207;-78
2021/06/30 07:05:20;;;;;;;4.63;4.40;;;19.80;99.90;;;;;;5072891;28;20609;-78
2021/06/30 07:07:46;;;;;;;8.77;6.70;;;19.90;99.90;;;;;;5072238;28;20165;-78
2021/06/30 07:10:12;;;;;;;5.70;5.30;;;20.00;99.90;;;;;;5072685;28;20240;-77
2021/06/30 07:12:39;;;;;;;8.13;7.73;;;20.10;99.90;;;;;;5072803;28;20177;-78
2021/06/30 07:15:06;;;;;;;6.73;6.33;;;20.20;99.90;;;;;;5071957;28;20438;-77
2021/06/30 07:17:34;;;;;;;4.07;3.87;;;20.30;99.90;;;;;;5072777;28;20810;-77
2021/06/30 07:20:00;;;;;;;4.60;4.30;;;20.40;99.90;;;;;;5072214;28;20403;-78
2021/06/30 07:22:25;;;;;;;6.20;5.80;;;20.40;99.90;;;;;;5054856;28;20415;-78
2021/06/30 07:24:51;;;;;;;7.60;7.20;;;20.60;99.90;;;;;;5072059;28;20184;-78
2021/06/30 07:27:17;;;;;;;6.17;5.87;;;20.50;99.90;;;;;;5072384;28;20478;-78
2021/06/30 07:29:43;;;;;;;5.63;5.40;;;20.50;99.90;;;;;;5072197;28;20196;-79
2021/06/30 07:32:09;;;;;;;6.03;5.83;;;20.50;99.90;;;;;;5072451;28;20184;-78
2021/06/30 07:34:34;;;;;;;4.60;4.37;;;20.50;99.90;;;;;;5072498;28;20859;-78
2021/06/30 07:37:00;;;;;;;5.60;5.30;;;20.40;99.90;;;;;;5071919;28;20177;-77
2021/06/30 07:39:26;;;;;;;10.80;9.80;;;20.50;99.90;;;;;;5072390;28;20184;-78
2021/06/30 07:41:52;;;;;;;5.20;4.83;;;20.30;99.90;;;;;;5071941;28;20621;-78
2021/06/30 07:44:19;;;;;;;8.13;7.53;;;20.40;99.90;;;;;;5072220;28;20510;-77
2021/06/30 07:46:45;;;;;;;7.67;7.10;;;20.40;99.90;;;;;;5053713;28;20501;-78
2021/06/30 07:49:11;;;;;;;5.00;4.80;;;20.40;99.90;;;;;;5072334;28;20447;-78
2021/06/30 07:51:36;;;;;;;5.70;5.40;;;20.60;99.90;;;;;;5072479;28;20181;-78
2021/06/30 07:54:03;;;;;;;5.90;5.60;;;20.60;99.90;;;;;;5071694;28;20251;-77
2021/06/30 07:56:34;;;;;;;5.80;5.50;;;20.70;99.90;;;;;;5054299;28;20633;-78
2021/06/30 07:59:05;;;;;;;5.57;5.27;;;20.80;99.90;;;;;;5071751;28;20411;-78
2021/06/30 08:01:31;;;;;;;5.50;5.17;;;20.90;99.90;;;;;;5072219;28;20502;-78
2021/06/30 08:03:57;;;;;;;6.20;5.80;;;21.10;99.90;;;;;;5071697;28;20803;-79
2021/06/30 08:06:23;;;;;;;5.30;5.00;;;21.20;99.90;;;;;;5054486;28;20399;-77
2021/06/30 08:08:49;;;;;;;7.60;7.20;;;21.30;99.90;;;;;;5071538;28;20528;-79
2021/06/30 08:11:17;;;;;;;7.43;7.13;;;21.50;99.90;;;;;;5072195;28;20166;-78
2021/06/30 08:13:42;;;;;;;5.23;4.93;;;21.70;99.90;;;;;;5072189;28;20312;-79
2021/06/30 08:16:08;;;;;;;4.87;4.57;;;21.70;99.90;;;;;;5071715;28;20851;-78
2021/06/30 08:18:34;;;;;;;6.30;6.00;;;21.90;99.90;;;;;;5072336;28;20181;-78
2021/06/30 08:21:00;;;;;;;5.70;5.40;;;22.00;99.80;;;;;;5071406;28;20180;-80
2021/06/30 08:23:25;;;;;;;6.00;5.37;;;22.10;99.90;;;;;;5071308;28;20226;-78
2021/06/30 08:25:52;;;;;;;4.93;4.63;;;21.90;98.50;;;;;;5071362;28;20251;-76
2021/06/30 08:28:23;;;;;;;5.70;5.37;;;21.70;99.50;;;;;;5075840;28;20255;-76
2021/06/30 08:30:49;;;;;;;6.17;5.87;;;21.80;99.90;;;;;;5075260;28;20438;-77
2021/06/30 08:33:15;;;;;;;7.67;7.17;;;21.90;99.90;;;;;;5075645;28;20854;-79
2021/06/30 08:35:41;;;;;;;6.20;5.90;;;22.10;99.90;;;;;;5075689;28;20399;-76
2021/06/30 08:38:08;;;;;;;5.37;5.10;;;22.20;99.90;;;;;;5075135;28;20544;-77
2021/06/30 08:40:34;;;;;;;5.70;5.47;;;22.30;99.80;;;;;;5075850;28;20185;-77
2021/06/30 08:43:00;;;;;;;9.67;9.27;;;22.50;99.90;;;;;;5074816;28;20853;-77
2021/06/30 08:45:26;;;;;;;7.13;6.73;;;22.70;99.70;;;;;;5075412;28;20487;-76
2021/06/30 08:47:55;;;;;;;5.93;5.63;;;22.90;98.70;;;;;;5075234;28;20192;-77
2021/06/30 08:50:22;;;;;;;6.70;6.40;;;22.90;97.90;;;;;;5075568;28;20227;-78
2021/06/30 08:52:51;;;;;;;6.00;5.70;;;22.90;97.40;;;;;;5075487;28;20859;-78
2021/06/30 08:55:18;;;;;;;6.97;6.57;;;22.80;96.80;;;;;;5074940;28;20412;-77
2021/06/30 08:57:45;;;;;;;6.63;6.30;;;22.80;96.80;;;;;;5075139;28;20537;-76
2021/06/30 09:00:13;;;;;;;5.93;5.63;;;22.80;97.30;;;;;;5074138;28;20423;-76
2021/06/30 09:02:43;;;;;;;6.23;5.83;;;22.70;96.70;;;;;;5075265;28;20441;-76
2021/06/30 09:07:50;;;;;;;6.40;6.10;;;22.50;96.40;;;;;;5075841;28;20838;-77
2021/06/30 09:10:30;;;;;;;7.30;6.90;;;22.50;96.60;;;;;;5073846;28;20572;-76
2021/06/30 09:12:57;;;;;;;6.90;6.60;;;22.40;97.50;;;;;;5074299;28;20449;-77
2021/06/30 09:15:29;;;;;;;5.90;5.50;;;22.30;98.20;;;;;;5075079;28;20506;-77
2021/06/30 09:18:14;;;;;;;4.90;4.70;;;22.30;97.00;;;;;;5074254;28;20475;-76
2021/06/30 09:20:40;;;;;;;5.80;5.50;;;22.20;97.20;;;;;;5075074;28;20404;-77
2021/06/30 09:23:06;;;;;;;8.13;7.73;;;22.10;97.50;;;;;;5074283;28;20406;-77
2021/06/30 09:25:43;;;;;;;6.93;6.40;;;22.00;97.50;;;;;;5074827;28;20177;-76
2021/06/30 09:28:25;;;;;;;7.20;6.80;;;22.00;98.50;;;;;;5074251;28;20161;-76
2021/06/30 09:31:10;;;;;;;6.10;5.80;;;22.00;98.10;;;;;;5074153;28;20524;-77
2021/06/30 09:33:54;;;;;;;9.53;8.93;;;22.00;97.90;;;;;;5074584;28;20399;-76
2021/06/30 09:36:21;;;;;;;10.10;9.40;;;22.10;98.90;;;;;;5074617;28;20411;-76
2021/06/30 09:38:48;;;;;;;8.70;8.20;;;22.20;97.90;;;;;;5073334;28;20407;-76
2021/06/30 09:41:22;;;;;;;8.90;8.50;;;22.40;98.00;;;;;;5074325;28;20411;-77
2021/06/30 09:43:48;;;;;;;9.87;9.47;;;22.60;96.60;;;;;;5075919;28;20396;-76
2021/06/30 09:46:23;;;;;;;9.50;9.00;;;22.40;97.00;;;;;;5073734;28;20499;-76
2021/06/30 09:49:00;;;;;;;7.70;7.30;;;22.50;97.50;;;;;;5074917;28;20164;-76
2021/06/30 09:51:26;;;;;;;10.30;9.80;;;22.70;97.20;;;;;;5074988;28;20498;-76
2021/06/30 09:53:53;;;;;;;9.67;9.07;;;22.90;97.10;;;;;;5074229;28;20487;-77
2021/06/30 09:56:35;;;;;;;12.30;11.40;;;22.90;96.60;;;;;;5075131;28;20490;-77
2021/06/30 09:59:26;;;;;;;8.60;7.90;;;22.90;96.30;;;;;;5074178;28;20941;-77
2021/06/30 10:02:02;;;;;;;7.33;6.93;;;22.80;96.70;;;;;;5074286;28;20402;-78
2021/06/30 10:04:39;;;;;;;8.00;7.50;;;22.90;97.00;;;;;;5074511;28;20391;-77
2021/06/30 10:07:10;;;;;;;8.57;7.97;;;22.90;96.30;;;;;;5073395;28;20492;-77
2021/06/30 10:09:36;;;;;;;8.60;8.10;;;22.90;96.30;;;;;;5074048;28;21077;-78
2021/06/30 10:12:08;;;;;;;8.90;8.40;;;22.90;96.20;;;;;;5073399;28;20399;-77
2021/06/30 10:14:35;;;;;;;9.33;8.63;;;23.00;96.40;;;;;;5073826;28;20910;-77
2021/06/30 10:17:02;;;;;;;9.10;8.60;;;23.00;95.30;;;;;;5072566;28;20775;-77
2021/06/30 10:19:29;;;;;;;9.17;8.57;;;23.10;96.20;;;;;;5073242;28;20403;-77
2021/06/30 10:21:55;;;;;;;9.63;9.00;;;23.20;96.10;;;;;;5072833;28;20867;-78
2021/06/30 10:24:22;;;;;;;10.23;9.63;;;23.30;94.90;;;;;;5055998;28;20415;-77
2021/06/30 10:26:49;;;;;;;8.17;7.67;;;23.30;94.00;;;;;;5073796;28;20399;-78
2021/06/30 10:29:16;;;;;;;7.73;7.27;;;23.40;95.00;;;;;;5072890;28;20503;-76
2021/06/30 10:31:45;;;;;;;7.10;6.70;;;23.60;94.60;;;;;;5073593;28;20926;-76
2021/06/30 10:34:12;;;;;;;7.20;6.80;;;23.80;95.00;;;;;;5055021;28;20404;-77
2021/06/30 10:37:00;;;;;;;8.50;7.80;;;24.10;94.70;;;;;;5073971;28;20418;-76
2021/06/30 10:39:34;;;;;;;8.80;8.30;;;24.30;93.80;;;;;;5073585;28;20387;-76
2021/06/30 10:42:14;;;;;;;8.53;7.83;;;24.40;92.40;;;;;;5072512;28;20407;-76
2021/06/30 10:44:54;;;;;;;8.57;8.00;;;24.30;91.50;;;;;;5073666;28;20468;-77
2021/06/30 10:47:33;;;;;;;8.83;8.17;;;24.30;91.90;;;;;;5073700;28;20380;-76
2021/06/30 10:50:26;;;;;;;7.97;7.57;;;24.40;92.00;;;;;;5072420;28;20454;-78
2021/06/30 10:53:22;;;;;;;7.60;7.17;;;24.50;90.60;;;;;;5065163;28;20415;-77
2021/06/30 10:55:53;;;;;;;7.97;7.43;;;24.60;91.80;;;;;;5045086;28;20465;-77
2021/06/30 10:58:25;;;;;;;9.33;8.93;;;24.70;92.50;;;;;;5072608;28;20388;-77
2021/06/30 11:00:51;;;;;;;7.27;6.87;;;24.90;91.00;;;;;;5073255;28;20416;-77
2021/06/30 11:03:22;;;;;;;9.40;8.90;;;25.00;90.40;;;;;;5072153;28;20415;-79
2021/06/30 11:05:48;;;;;;;7.93;7.33;;;24.90;90.20;;;;;;5072886;28;20407;-78
2021/06/30 11:08:45;;;;;;;11.27;10.67;;;24.70;91.20;;;;;;5072235;28;20408;-78
2021/06/30 11:11:17;;;;;;;7.17;6.87;;;24.60;91.10;;;;;;5054246;28;20955;-78
2021/06/30 11:14:03;;;;;;;6.23;5.93;;;24.60;91.10;;;;;;5072774;28;20423;-78
2021/06/30 11:19:18;;;;;;;7.10;6.70;;;24.60;90.80;;;;;;5072063;28;20452;-77
2021/06/30 11:21:55;;;;;;;6.47;6.07;;;24.50;90.80;;;;;;5072928;28;20454;-77
2021/06/30 11:24:43;;;;;;;6.63;6.23;;;24.50;91.50;;;;;;5072328;28;20407;-77
2021/06/30 11:27:25;;;;;;;6.73;6.43;;;24.40;91.40;;;;;;5072137;28;20441;-77
2021/06/30 11:29:58;;;;;;;8.00;7.67;;;24.50;90.90;;;;;;5072598;28;20496;-76
2021/06/30 11:32:36;;;;;;;6.43;6.00;;;24.50;91.60;;;;;;5072621;28;20421;-77
2021/06/30 11:35:04;;;;;;;5.37;5.17;;;24.60;91.80;;;;;;5071030;28;20446;-77
2021/06/30 11:37:31;;;;;;;5.70;5.40;;;24.60;91.40;;;;;;5072654;28;20403;-76
2021/06/30 11:40:02;;;;;;;6.53;6.23;;;24.50;91.70;;;;;;5072458;28;20445;-77
2021/06/30 11:42:39;;;;;;;6.83;6.50;;;24.50;92.20;;;;;;5072777;28;20391;-77
2021/06/30 11:45:16;;;;;;;7.40;7.00;;;24.40;91.60;;;;;;5071563;28;20458;-76
2021/06/30 11:47:43;;;;;;;6.33;6.03;;;24.30;92.20;;;;;;5072391;28;20404;-75
2021/06/30 11:50:16;;;;;;;6.40;6.10;;;24.30;92.00;;;;;;5071719;28;20455;-75
2021/06/30 11:52:42;;;;;;;7.70;7.00;;;24.30;92.10;;;;;;5072342;28;20406;-76
2021/06/30 11:55:08;;;;;;;6.30;5.97;;;24.20;91.40;;;;;;5071719;28;20943;-76
2021/06/30 11:57:34;;;;;;;6.30;6.00;;;24.10;92.10;;;;;;5072369;28;20637;-76
2021/06/30 12:00:12;;;;;;;6.37;6.07;;;24.00;92.30;;;;;;5071327;28;20413;-77
2021/06/30 12:02:48;;;;;;;4.83;4.63;;;23.90;93.40;;;;;;5075462;28;20403;-76
2021/06/30 12:05:15;;;;;;;6.70;6.03;;;23.70;93.80;;;;;;5075629;28;20407;-76
2021/06/30 12:07:42;;;;;;;4.57;4.37;;;23.60;93.90;;;;;;5076267;28;20406;-76
2021/06/30 12:10:08;;;;;;;4.30;4.10;;;23.50;92.90;;;;;;5075940;28;20930;-76
2021/06/30 12:12:34;;;;;;;4.37;4.17;;;23.50;93.70;;;;;;5076485;28;20404;-75
2021/06/30 12:15:04;;;;;;;3.80;3.60;;;23.50;93.90;;;;;;5075574;28;20411;-77
2021/06/30 12:17:30;;;;;;;4.00;3.83;;;23.50;93.60;;;;;;5076852;28;20181;-77
2021/06/30 12:19:56;;;;;;;3.73;3.63;;;23.50;93.10;;;;;;5076106;28;20552;-76
2021/06/30 12:22:26;;;;;;;4.67;4.37;;;23.50;93.10;;;;;;5075561;28;20419;-77
2021/06/30 12:24:57;;;;;;;3.97;3.77;;;23.50;93.30;;;;;;5075914;28;20173;-75
2021/06/30 12:27:27;;;;;;;4.03;3.83;;;23.50;93.60;;;;;;5075365;28;20396;-77
2021/06/30 12:29:58;;;;;;;4.47;4.27;;;23.60;94.50;;;;;;5075854;28;20458;-77
2021/06/30 12:32:25;;;;;;;5.30;5.00;;;23.60;94.30;;;;;;5075239;28;20503;-77
2021/06/30 12:34:50;;;;;;;4.27;4.07;;;23.60;93.80;;;;;;5072520;28;20426;-77
2021/06/30 12:37:24;;;;;;;4.10;4.00;;;23.50;93.50;;;;;;5055195;28;20408;-77
2021/06/30 12:40:10;;;;;;;3.90;3.70;;;23.50;94.30;;;;;;5059200;28;20180;-78
2021/06/30 12:42:56;;;;;;;5.53;5.33;;;23.50;93.10;;;;;;5059377;28;20403;-75
2021/06/30 12:45:44;;;;;;;6.20;5.90;;;23.50;93.90;;;;;;5046362;28;20465;-75
2021/06/30 12:48:13;;;;;;;4.00;3.90;;;23.40;93.60;;;;;;5034940;28;20405;-75
2021/06/30 12:50:47;;;;;;;3.80;3.70;;;23.30;93.30;;;;;;5035453;28;20456;-75
2021/06/30 12:53:22;;;;;;;4.30;4.10;;;23.30;93.80;;;;;;5034795;28;20425;-75
2021/06/30 12:56:03;;;;;;;4.00;3.80;;;23.30;93.10;;;;;;5035503;28;20401;-75